This is the latest recevied weather packets stored in our database for station/object K4SHP-15. If no packets are shown the sender has not sent any weather packets the latest 10 day(s).
| Time | Temp. | Humidity | Pressure | Rain* | Wind** | Luminosity | Snow |
|---|---|---|---|---|---|---|---|
| 1777872443 | 10.56° C | 90% | 1016.9 hPa | 0 mm | - | - | - |
| 1777870802 | 11.11° C | 87% | 1017 hPa | 0 mm | - | - | - |
| 1777864682 | 12.78° C | 82% | 1017 hPa | 0 mm | - | - | - |
| 1777861082 | 12.78° C | 82% | 1016.6 hPa | 0 mm | - | - | - |
| 1777859102 | 12.78° C | 80% | 1016.5 hPa | 0 mm | - | - | - |
| 1777855502 | 13.89° C | 83% | 1015.6 hPa | 0 mm | - | - | - |
| 1777854963 | 13.89° C | 82% | 1015.5 hPa | 0 mm | - | - | - |
| 1777854422 | 14.44° C | 81% | 1015.5 hPa | 0 mm | - | - | - |
| 1777851362 | 18.33° C | 54% | 1015.1 hPa | 0 mm | - | - | - |
| 1777841103 | 21.11° C | 45% | 1015 hPa | 0 mm | - | - | - |
| 1777833903 | 20.56° C | 47% | 1016.5 hPa | 0 mm | - | - | - |
| 1777831743 | 20° C | 51% | 1017 hPa | 0 mm | - | - | - |
| 1777819503 | 15.56° C | 54% | 1017.8 hPa | 0 mm | - | - | - |
| 1777818423 | 15° C | 57% | 1017.8 hPa | 0 mm | - | - | - |
| 1777817343 | 14.44° C | 59% | 1017.8 hPa | 0 mm | - | - | - |
| 1777816803 | 14.44° C | 64% | 1017.8 hPa | 0 mm | - | - | - |
| 1777815903 | 14.44° C | 68% | 1017.7 hPa | 0 mm | - | - | - |
| 1777810683 | 8.89° C | 95% | 1017.2 hPa | 0 mm | - | - | - |
| 1777810143 | 8.33° C | 97% | 1017 hPa | 0 mm | - | - | - |
| 1777806003 | 7.22° C | 98% | 1016 hPa | 0 mm | - | - | - |
| 1777805643 | 7.22° C | 98% | 1015.8 hPa | 0 mm | - | - | - |
| 1777802403 | 6.67° C | 97% | 1015.1 hPa | 0 mm | - | - | - |
| 1777802043 | 6.67° C | 97% | 1015 hPa | 0 mm | - | - | - |
| 1777800984 | 6.67° C | 97% | 1014.9 hPa | 0 mm | - | - | - |
| 1777798803 | 6.67° C | 97% | 1014.9 hPa | 0 mm | - | - | - |
* Rain latest hour (hover to see other rain measurements)
** Current wind speed in m/s (hover to see current wind gust speed)